Time;durP1;ratioP1;P1;durP2;ratioP2;P2;SDS_P1;SDS_P2;PMS_P1;PMS_P2;Temp;Humidity;BMP_temperature;BMP_pressure;BME280_temperature;BME280_humidity;BME280_pressure;Samples;Min_cycle;Max_cycle;Signal;HPM_P1;HPM_P2
2022/07/16 00:03:05;;;;;;;0.30;0.30;;;24.20;44.40;;;;;;6281358;28;20072;-47
2022/07/16 00:06:08;;;;;;;0.50;0.38;;;24.30;44.40;;;;;;6283920;28;20109;-44
2022/07/16 00:09:10;;;;;;;0.95;0.30;;;24.30;44.50;;;;;;6286187;28;20151;-42
2022/07/16 00:12:12;;;;;;;0.50;0.30;;;24.30;44.40;;;;;;6284714;28;20248;-43
2022/07/16 00:15:13;;;;;;;0.40;0.40;;;24.20;44.30;;;;;;6286303;28;20078;-48
2022/07/16 00:21:32;;;;;;;0.40;0.40;;;24.20;44.20;;;;;;6261543;28;20059;-46
2022/07/16 00:24:33;;;;;;;0.32;0.32;;;24.20;44.20;;;;;;6283706;28;20514;-43
2022/07/16 00:27:35;;;;;;;0.40;0.38;;;24.30;44.30;;;;;;6276085;28;21159;-46
2022/07/16 00:30:36;;;;;;;0.43;0.30;;;24.20;44.20;;;;;;6275277;28;20052;-46
2022/07/16 00:33:38;;;;;;;0.30;0.30;;;24.20;44.20;;;;;;6269758;28;20038;-43
2022/07/16 00:36:44;;;;;;;0.40;0.30;;;24.20;44.20;;;;;;6270394;28;21006;-41
2022/07/16 00:39:46;;;;;;;0.60;0.32;;;24.20;44.20;;;;;;6257607;28;20043;-47
2022/07/16 00:42:47;;;;;;;0.40;0.32;;;24.20;44.20;;;;;;6283329;28;20845;-48
2022/07/16 00:45:49;;;;;;;0.30;0.30;;;24.10;44.20;;;;;;6279266;28;20201;-46
2022/07/16 00:48:51;;;;;;;0.47;0.32;;;24.10;44.20;;;;;;6294733;28;20047;-45
2022/07/16 00:51:53;;;;;;;0.63;0.38;;;24.20;44.20;;;;;;6288208;28;20067;-44
2022/07/16 00:54:54;;;;;;;0.30;0.30;;;24.00;44.00;;;;;;6295390;28;20911;-46
2022/07/16 00:57:56;;;;;;;0.65;0.30;;;24.10;44.20;;;;;;6290057;28;20036;-42
2022/07/16 01:00:58;;;;;;;0.30;0.30;;;24.10;44.10;;;;;;6295397;28;20151;-42
2022/07/16 01:04:01;;;;;;;0.20;0.20;;;24.10;44.10;;;;;;6291636;28;20039;-46
2022/07/16 01:07:05;;;;;;;0.40;0.40;;;24.10;44.10;;;;;;6274730;28;20039;-47
2022/07/16 01:10:07;;;;;;;0.30;0.30;;;23.90;44.00;;;;;;6288214;28;20174;-47
2022/07/16 01:13:10;;;;;;;0.35;0.35;;;24.00;44.00;;;;;;6274827;28;20349;-47
2022/07/16 01:16:12;;;;;;;0.60;0.32;;;24.00;44.10;;;;;;6271788;28;20994;-44
2022/07/16 01:19:14;;;;;;;0.40;0.35;;;23.90;44.00;;;;;;6240251;28;20043;-46
2022/07/16 01:22:19;;;;;;;0.77;0.50;;;24.10;44.10;;;;;;6274921;28;20048;-48
2022/07/16 01:25:21;;;;;;;0.40;0.38;;;24.00;44.00;;;;;;6272341;28;20665;-45
2022/07/16 01:28:23;;;;;;;0.40;0.40;;;23.90;43.90;;;;;;6251966;28;20056;-48
2022/07/16 01:31:25;;;;;;;0.50;0.30;;;24.00;44.10;;;;;;6267526;28;20278;-44
2022/07/16 01:34:26;;;;;;;0.40;0.40;;;23.90;43.90;;;;;;6269595;28;20404;-48
2022/07/16 01:37:31;;;;;;;0.40;0.30;;;23.90;44.00;;;;;;6272309;28;20163;-47
2022/07/16 01:40:36;;;;;;;0.20;0.20;;;24.00;44.00;;;;;;6274182;28;20071;-44
2022/07/16 01:43:38;;;;;;;0.40;0.30;;;23.90;44.00;;;;;;6268615;28;21055;-47
2022/07/16 01:46:40;;;;;;;0.80;0.38;;;23.90;44.00;;;;;;6252856;28;20243;-45
2022/07/16 01:49:41;;;;;;;0.30;0.30;;;23.90;44.00;;;;;;6270930;28;20608;-49
2022/07/16 01:52:43;;;;;;;0.40;0.30;;;24.00;44.00;;;;;;6275047;28;20464;-47
2022/07/16 01:55:46;;;;;;;0.40;0.40;;;23.80;43.90;;;;;;6279585;28;20187;-46
2022/07/16 01:58:47;;;;;;;0.30;0.30;;;23.90;44.00;;;;;;6281611;28;20146;-48
2022/07/16 02:01:49;;;;;;;0.50;0.30;;;23.90;44.00;;;;;;6264270;28;20166;-45
2022/07/16 02:04:50;;;;;;;0.85;0.40;;;23.90;44.00;;;;;;6278102;28;20051;-44
2022/07/16 02:07:58;;;;;;;0.60;0.38;;;23.90;44.00;;;;;;6273902;28;20528;-46
2022/07/16 02:11:04;;;;;;;0.60;0.50;;;23.80;43.90;;;;;;6267642;28;20172;-46
2022/07/16 02:14:05;;;;;;;0.30;0.30;;;24.00;44.00;;;;;;6252521;28;20036;-46
2022/07/16 02:17:07;;;;;;;0.50;0.50;;;23.90;44.00;;;;;;6270078;28;20083;-44
2022/07/16 02:20:11;;;;;;;0.47;0.38;;;23.90;44.00;;;;;;6271701;28;20285;-45
2022/07/16 02:23:12;;;;;;;0.47;0.28;;;23.80;43.90;;;;;;6256046;28;20157;-46
2022/07/16 02:26:14;;;;;;;0.45;0.22;;;23.80;43.90;;;;;;6274111;28;20568;-45
2022/07/16 02:29:16;;;;;;;0.63;0.50;;;23.90;44.00;;;;;;6274214;28;20047;-46
2022/07/16 02:32:17;;;;;;;0.47;0.40;;;23.90;44.00;;;;;;6284106;28;20143;-45
2022/07/16 02:35:19;;;;;;;0.43;0.32;;;23.60;43.90;;;;;;6272286;28;20036;-44
2022/07/16 02:38:21;;;;;;;0.52;0.40;;;23.90;44.00;;;;;;6269749;28;20952;-48
2022/07/16 02:41:23;;;;;;;0.30;0.30;;;23.70;43.90;;;;;;6273823;28;20097;-45
2022/07/16 02:44:26;;;;;;;0.38;0.30;;;23.90;44.00;;;;;;6273656;28;20090;-47
2022/07/16 02:47:27;;;;;;;0.40;0.30;;;23.80;44.00;;;;;;6252442;28;20052;-46
2022/07/16 02:50:29;;;;;;;0.22;0.20;;;23.90;44.00;;;;;;6271055;28;20979;-50
2022/07/16 02:53:31;;;;;;;0.50;0.40;;;23.80;44.00;;;;;;6277586;28;20190;-44
2022/07/16 02:56:33;;;;;;;0.65;0.30;;;23.70;43.90;;;;;;6274491;28;20327;-45
2022/07/16 02:59:34;;;;;;;0.40;0.40;;;23.90;44.10;;;;;;6270609;28;20032;-46
2022/07/16 03:02:36;;;;;;;0.30;0.30;;;23.80;44.00;;;;;;6275492;28;20075;-47
2022/07/16 03:05:38;;;;;;;0.30;0.30;;;23.80;44.00;;;;;;6275597;28;20051;-46
2022/07/16 03:08:42;;;;;;;0.47;0.30;;;23.70;44.00;;;;;;6278300;28;20767;-44
2022/07/16 03:11:48;;;;;;;0.50;0.30;;;23.80;44.00;;;;;;6272335;28;20317;-44
2022/07/16 03:14:49;;;;;;;0.30;0.30;;;23.70;44.00;;;;;;6277003;28;20358;-43
2022/07/16 03:17:51;;;;;;;0.40;0.40;;;23.80;44.10;;;;;;6270792;28;20052;-46
2022/07/16 03:20:52;;;;;;;0.50;0.43;;;23.70;44.00;;;;;;6269167;28;20161;-46
2022/07/16 03:23:54;;;;;;;0.30;0.28;;;23.80;44.00;;;;;;6272793;28;20306;-47
2022/07/16 03:26:56;;;;;;;0.55;0.32;;;23.80;44.10;;;;;;6275696;28;20283;-46
2022/07/16 03:30:04;;;;;;;0.57;0.45;;;23.70;44.00;;;;;;6271665;28;20074;-45
2022/07/16 03:33:06;;;;;;;0.30;0.30;;;23.80;44.10;;;;;;6273701;28;20864;-46
2022/07/16 03:36:08;;;;;;;0.70;0.40;;;23.70;44.10;;;;;;6269609;28;20370;-46
2022/07/16 03:39:13;;;;;;;0.55;0.43;;;23.80;44.10;;;;;;6288418;28;20113;-47
2022/07/16 03:42:18;;;;;;;0.38;0.35;;;23.70;44.10;;;;;;6287226;28;20071;-47
2022/07/16 03:45:20;;;;;;;0.30;0.30;;;23.70;44.20;;;;;;6282640;28;20837;-45
2022/07/16 03:48:22;;;;;;;0.43;0.35;;;23.70;44.10;;;;;;6288587;28;20048;-46
2022/07/16 03:51:23;;;;;;;0.32;0.30;;;23.70;44.10;;;;;;6275795;28;20598;-46
2022/07/16 03:54:25;;;;;;;0.85;0.40;;;23.70;44.20;;;;;;6273869;28;20078;-47
2022/07/16 03:57:27;;;;;;;0.52;0.43;;;23.80;44.20;;;;;;6267875;28;20117;-45
2022/07/16 04:00:28;;;;;;;0.40;0.30;;;23.80;44.20;;;;;;6267334;28;21046;-46
2022/07/16 04:03:37;;;;;;;0.45;0.40;;;23.90;44.20;;;;;;6273413;28;20401;-49
2022/07/16 04:06:39;;;;;;;0.57;0.50;;;23.80;44.10;;;;;;6273693;28;20293;-47
2022/07/16 04:09:41;;;;;;;0.52;0.40;;;23.80;44.10;;;;;;6267382;28;20294;-44
2022/07/16 04:12:46;;;;;;;0.52;0.30;;;23.90;44.20;;;;;;6271946;28;20057;-47
2022/07/16 04:15:48;;;;;;;0.70;0.52;;;23.90;44.20;;;;;;6280202;28;20382;-45
2022/07/16 04:18:49;;;;;;;0.65;0.50;;;23.80;44.20;;;;;;6273140;28;20362;-44
2022/07/16 04:21:51;;;;;;;0.40;0.32;;;23.80;44.10;;;;;;6261395;28;20193;-47
2022/07/16 04:24:53;;;;;;;0.40;0.40;;;23.80;44.20;;;;;;6263002;28;20169;-45
2022/07/16 04:27:55;;;;;;;0.63;0.40;;;23.90;44.30;;;;;;6263436;28;20246;-44
2022/07/16 04:30:57;;;;;;;0.70;0.40;;;23.90;44.30;;;;;;6242498;28;20653;-45
2022/07/16 04:33:58;;;;;;;0.40;0.40;;;23.90;44.90;;;;;;6265996;28;20113;-45
2022/07/16 04:37:00;;;;;;;0.55;0.30;;;23.80;44.20;;;;;;6264247;28;20186;-50
2022/07/16 04:40:05;;;;;;;0.73;0.50;;;23.80;44.20;;;;;;6264832;28;20125;-47
2022/07/16 04:43:07;;;;;;;0.30;0.30;;;23.70;44.20;;;;;;6264459;28;20075;-48
2022/07/16 04:46:09;;;;;;;0.40;0.40;;;23.80;44.20;;;;;;6263496;28;20354;-47
2022/07/16 04:49:10;;;;;;;0.47;0.40;;;23.80;44.20;;;;;;6265405;28;20044;-49
2022/07/16 04:52:12;;;;;;;0.35;0.30;;;23.80;44.20;;;;;;6262100;28;20087;-44
2022/07/16 04:55:13;;;;;;;0.60;0.30;;;23.70;44.10;;;;;;6263877;28;20484;-45
2022/07/16 04:58:16;;;;;;;0.30;0.30;;;23.90;44.20;;;;;;6263696;28;20106;-44
2022/07/16 05:01:17;;;;;;;0.28;0.20;;;23.80;44.20;;;;;;6268874;28;20097;-43
2022/07/16 05:04:19;;;;;;;0.65;0.30;;;23.80;44.20;;;;;;6279368;28;20215;-51
2022/07/16 05:07:20;;;;;;;0.47;0.30;;;23.70;44.20;;;;;;6271628;28;20043;-47
2022/07/16 05:10:25;;;;;;;0.40;0.40;;;23.80;44.20;;;;;;6268382;28;20076;-46
2022/07/16 05:13:28;;;;;;;0.40;0.40;;;23.80;44.20;;;;;;6267820;28;20341;-49
2022/07/16 05:16:29;;;;;;;0.55;0.40;;;23.80;44.20;;;;;;6264914;28;20151;-42
2022/07/16 05:19:31;;;;;;;0.45;0.40;;;23.70;44.20;;;;;;6263187;28;20048;-41
2022/07/16 05:22:33;;;;;;;0.40;0.30;;;23.70;44.20;;;;;;6261187;28;20118;-46
2022/07/16 05:25:34;;;;;;;0.75;0.45;;;23.80;44.30;;;;;;6247135;28;20515;-46
2022/07/16 05:28:37;;;;;;;0.70;0.43;;;23.80;44.30;;;;;;6264148;28;20764;-46
2022/07/16 05:31:38;;;;;;;0.43;0.30;;;23.90;44.30;;;;;;6272798;28;20091;-45
2022/07/16 05:34:40;;;;;;;0.40;0.40;;;23.60;44.20;;;;;;6266853;28;20563;-48
2022/07/16 05:37:42;;;;;;;0.32;0.30;;;23.80;44.30;;;;;;6265044;28;20332;-45
2022/07/16 05:40:44;;;;;;;0.40;0.30;;;23.80;44.30;;;;;;6258135;28;20050;-42
2022/07/16 05:43:47;;;;;;;0.32;0.32;;;23.80;44.30;;;;;;6259723;28;20035;-49
2022/07/16 05:46:48;;;;;;;0.50;0.40;;;23.70;44.20;;;;;;6262091;28;20170;-46
2022/07/16 05:49:50;;;;;;;0.63;0.40;;;23.80;44.20;;;;;;6258155;28;20085;-46
2022/07/16 05:52:51;;;;;;;0.52;0.40;;;23.80;44.30;;;;;;6255547;28;20036;-47
2022/07/16 05:55:53;;;;;;;0.40;0.40;;;23.80;44.30;;;;;;6240056;28;20476;-45
2022/07/16 05:58:56;;;;;;;0.57;0.32;;;23.80;44.30;;;;;;6260305;28;20394;-47
2022/07/16 06:01:58;;;;;;;0.35;0.30;;;23.80;44.30;;;;;;6261561;28;20388;-46
2022/07/16 06:04:59;;;;;;;0.40;0.40;;;23.80;44.30;;;;;;6276735;28;20426;-47
2022/07/16 06:08:01;;;;;;;0.57;0.40;;;23.80;44.30;;;;;;6271030;28;20051;-44
2022/07/16 06:11:03;;;;;;;0.60;0.30;;;23.70;44.30;;;;;;6266541;28;20591;-45
2022/07/16 06:14:05;;;;;;;0.22;0.22;;;23.70;44.30;;;;;;6271729;28;20036;-45
2022/07/16 06:17:07;;;;;;;1.10;0.32;;;23.80;44.30;;;;;;6276606;28;20089;-44
2022/07/16 06:20:09;;;;;;;1.05;0.40;;;23.80;44.30;;;;;;6261413;28;20052;-46
2022/07/16 06:23:10;;;;;;;0.65;0.50;;;23.80;44.30;;;;;;6263663;28;20047;-45
2022/07/16 06:26:12;;;;;;;0.40;0.30;;;23.80;44.50;;;;;;6265318;28;20134;-44
2022/07/16 06:29:14;;;;;;;0.43;0.43;;;23.80;44.40;;;;;;6265368;28;21528;-45
2022/07/16 06:32:16;;;;;;;0.50;0.40;;;23.80;44.40;;;;;;6266224;28;20040;-46
2022/07/16 06:35:18;;;;;;;0.40;0.30;;;23.70;44.30;;;;;;6261311;28;20044;-45
2022/07/16 06:38:19;;;;;;;0.55;0.40;;;23.80;44.40;;;;;;6269314;28;20609;-44
2022/07/16 06:41:25;;;;;;;1.05;0.30;;;23.80;44.40;;;;;;6273581;28;20349;-48
2022/07/16 06:44:27;;;;;;;0.50;0.50;;;23.80;44.40;;;;;;6274771;28;20912;-47
2022/07/16 06:47:29;;;;;;;1.23;0.55;;;23.90;44.40;;;;;;6268450;28;20059;-45
2022/07/16 06:50:31;;;;;;;0.43;0.40;;;23.80;44.30;;;;;;6273651;28;20118;-46
2022/07/16 06:53:35;;;;;;;0.75;0.40;;;23.90;44.40;;;;;;6288341;28;20085;-44
2022/07/16 06:56:40;;;;;;;0.40;0.30;;;23.80;44.40;;;;;;6290285;28;20133;-44
2022/07/16 06:59:42;;;;;;;0.40;0.30;;;23.90;44.50;;;;;;6278504;28;20039;-44
2022/07/16 07:02:43;;;;;;;0.40;0.40;;;23.80;44.40;;;;;;6277774;28;20941;-47
2022/07/16 07:05:49;;;;;;;0.57;0.20;;;23.90;44.50;;;;;;6279554;28;20322;-46
2022/07/16 07:08:51;;;;;;;0.40;0.40;;;23.80;44.40;;;;;;6276842;28;20045;-46
2022/07/16 07:11:57;;;;;;;0.50;0.40;;;23.90;44.50;;;;;;6273349;28;20028;-44
2022/07/16 07:14:59;;;;;;;0.40;0.38;;;23.90;44.50;;;;;;6278109;28;20309;-48
2022/07/16 07:18:01;;;;;;;0.30;0.30;;;24.00;44.60;;;;;;6274517;28;20623;-44
2022/07/16 07:21:03;;;;;;;0.20;0.20;;;24.00;44.60;;;;;;6274748;28;20281;-45
2022/07/16 07:24:05;;;;;;;0.38;0.30;;;24.00;44.60;;;;;;6247814;28;20515;-48
2022/07/16 07:27:27;;;;;;;0.38;0.30;;;23.80;44.50;;;;;;6249469;28;20316;-45
2022/07/16 07:30:29;;;;;;;0.20;0.20;;;23.90;44.50;;;;;;6265862;28;20040;-42
2022/07/16 07:33:31;;;;;;;0.35;0.30;;;24.00;44.60;;;;;;6267267;28;20039;-40
2022/07/16 07:36:33;;;;;;;0.32;0.30;;;24.10;44.60;;;;;;6260492;28;20326;-43
2022/07/16 07:39:34;;;;;;;0.45;0.40;;;24.00;44.60;;;;;;6269581;28;20072;-43
2022/07/16 07:42:39;;;;;;;0.40;0.40;;;23.90;44.50;;;;;;6280635;28;20127;-41
2022/07/16 07:45:41;;;;;;;0.93;0.40;;;24.00;44.60;;;;;;6289172;28;20146;-45
2022/07/16 07:48:43;;;;;;;0.30;0.30;;;24.00;44.60;;;;;;6290476;28;20926;-42
2022/07/16 07:51:45;;;;;;;0.47;0.40;;;24.00;44.50;;;;;;6289381;28;20159;-43
2022/07/16 07:54:46;;;;;;;0.52;0.40;;;24.00;44.50;;;;;;6288255;28;20143;-43
2022/07/16 07:57:48;;;;;;;0.40;0.30;;;23.90;44.40;;;;;;6285266;28;20039;-49
2022/07/16 08:00:54;;;;;;;0.47;0.45;;;24.00;44.50;;;;;;6287097;28;20040;-42
2022/07/16 08:04:16;;;;;;;0.85;0.30;;;24.00;44.50;;;;;;6271371;28;20071;-42
2022/07/16 08:07:17;;;;;;;1.08;0.30;;;24.00;44.50;;;;;;6288340;28;20048;-41
2022/07/16 08:10:19;;;;;;;0.60;0.35;;;24.00;44.40;;;;;;6271820;28;20031;-42
2022/07/16 08:13:24;;;;;;;0.50;0.40;;;24.10;44.50;;;;;;6267368;28;20820;-43
2022/07/16 08:16:27;;;;;;;0.30;0.30;;;24.00;44.40;;;;;;6282286;28;20043;-47
2022/07/16 08:19:30;;;;;;;0.40;0.20;;;23.90;44.30;;;;;;6292539;28;20669;-42
2022/07/16 08:22:31;;;;;;;0.82;0.30;;;23.90;44.30;;;;;;6293455;28;20047;-43
2022/07/16 08:28:50;;;;;;;0.40;0.32;;;24.10;44.30;;;;;;6279690;28;20044;-43
2022/07/16 08:31:52;;;;;;;0.40;0.30;;;24.10;44.20;;;;;;6278918;28;20070;-46
2022/07/16 08:34:54;;;;;;;1.63;0.40;;;24.20;44.10;;;;;;6279716;28;20137;-44
2022/07/16 08:37:55;;;;;;;0.85;0.38;;;24.10;44.00;;;;;;6280425;28;20047;-44
2022/07/16 08:41:02;;;;;;;0.30;0.20;;;24.10;43.80;;;;;;6280919;28;20037;-44
2022/07/16 08:44:05;;;;;;;0.32;0.20;;;24.20;43.70;;;;;;6278353;28;20072;-45
2022/07/16 08:47:10;;;;;;;0.32;0.30;;;24.20;43.60;;;;;;6284467;28;20162;-43
2022/07/16 08:50:13;;;;;;;0.40;0.30;;;24.20;43.40;;;;;;6250923;28;20075;-49
2022/07/16 08:53:17;;;;;;;0.60;0.30;;;24.30;43.30;;;;;;6250212;28;20040;-44
2022/07/16 08:56:18;;;;;;;0.30;0.20;;;24.20;43.20;;;;;;6291447;28;20113;-46
2022/07/16 08:59:20;;;;;;;0.30;0.20;;;24.20;43.00;;;;;;6284562;28;21446;-43
2022/07/16 09:02:22;;;;;;;0.30;0.30;;;24.30;43.00;;;;;;6281896;28;20048;-44
2022/07/16 09:05:26;;;;;;;0.40;0.40;;;24.20;42.80;;;;;;6265196;28;20162;-41
2022/07/16 09:08:28;;;;;;;0.30;0.20;;;24.30;42.60;;;;;;6262357;28;20950;-42
2022/07/16 09:11:33;;;;;;;0.30;0.30;;;24.30;42.50;;;;;;6281674;28;20146;-46
2022/07/16 09:14:34;;;;;;;0.30;0.20;;;24.30;42.30;;;;;;6259551;28;20139;-43
2022/07/16 09:17:36;;;;;;;0.55;0.40;;;24.20;42.10;;;;;;6283667;28;20107;-41
2022/07/16 09:20:40;;;;;;;0.30;0.30;;;24.30;42.20;;;;;;6282110;28;20071;-45
2022/07/16 09:23:42;;;;;;;0.60;0.38;;;24.30;42.00;;;;;;6267530;28;20096;-44
2022/07/16 09:26:44;;;;;;;0.25;0.25;;;24.40;41.90;;;;;;6283449;28;20124;-44
2022/07/16 09:29:50;;;;;;;0.30;0.30;;;24.40;41.80;;;;;;6263804;28;20150;-45
2022/07/16 09:32:52;;;;;;;0.17;0.17;;;24.40;41.80;;;;;;6262043;28;20055;-45
2022/07/16 09:36:06;;;;;;;0.30;0.28;;;24.40;41.70;;;;;;6259430;28;20036;-44
2022/07/16 09:39:08;;;;;;;0.43;0.30;;;24.40;41.60;;;;;;6281665;28;20926;-42
2022/07/16 09:42:10;;;;;;;0.40;0.30;;;24.50;41.60;;;;;;6262680;28;20043;-48
2022/07/16 09:45:20;;;;;;;0.40;0.40;;;24.60;41.60;;;;;;6286163;28;20173;-41
2022/07/16 09:48:27;;;;;;;0.47;0.30;;;24.30;41.30;;;;;;6283993;28;20048;-44
2022/07/16 09:51:32;;;;;;;0.25;0.20;;;24.50;41.40;;;;;;6284684;28;20125;-45
2022/07/16 09:54:35;;;;;;;0.22;0.20;;;24.40;41.30;;;;;;6281125;28;20150;-42
2022/07/16 09:57:37;;;;;;;0.73;0.40;;;24.40;41.30;;;;;;6283189;28;20055;-43
2022/07/16 10:00:38;;;;;;;0.75;0.30;;;24.40;41.30;;;;;;6283989;28;20920;-42
2022/07/16 10:03:40;;;;;;;0.40;0.40;;;24.50;41.40;;;;;;6282197;28;20155;-45
2022/07/16 10:06:44;;;;;;;0.28;0.20;;;24.50;42.00;;;;;;6270832;28;20039;-43
2022/07/16 10:09:46;;;;;;;0.30;0.20;;;24.50;41.40;;;;;;6284920;28;20154;-40
2022/07/16 10:12:49;;;;;;;0.30;0.20;;;24.50;41.40;;;;;;6281557;28;20066;-42
2022/07/16 10:15:57;;;;;;;0.30;0.30;;;24.50;41.40;;;;;;6282570;28;20635;-44
2022/07/16 10:19:00;;;;;;;0.15;0.10;;;24.50;41.40;;;;;;6233208;28;20047;-42
2022/07/16 10:22:18;;;;;;;0.30;0.30;;;24.50;41.30;;;;;;6261351;28;20309;-46
2022/07/16 10:25:22;;;;;;;0.30;0.28;;;24.50;41.30;;;;;;6267354;28;20039;-44
2022/07/16 10:28:38;;;;;;;0.20;0.20;;;24.50;41.30;;;;;;6247962;28;20496;-43
2022/07/16 10:35:03;;;;;;;0.20;0.20;;;24.60;41.30;;;;;;6248291;28;20626;-47
2022/07/16 10:38:06;;;;;;;0.30;0.20;;;24.50;41.30;;;;;;6272562;28;20382;-48
2022/07/16 10:41:27;;;;;;;0.10;0.10;;;24.50;41.20;;;;;;6245023;28;20044;-45
2022/07/16 10:44:43;;;;;;;0.20;0.20;;;24.40;41.10;;;;;;6279764;28;20082;-44
2022/07/16 10:47:50;;;;;;;0.45;0.32;;;24.60;41.20;;;;;;6256485;28;20185;-48
2022/07/16 10:51:16;;;;;;;0.20;0.20;;;24.50;41.10;;;;;;6233841;28;20059;-47
2022/07/16 10:54:19;;;;;;;0.70;0.30;;;24.50;41.10;;;;;;6274606;28;20106;-51
2022/07/16 10:57:33;;;;;;;0.22;0.20;;;24.50;41.10;;;;;;6270879;28;20047;-43
2022/07/16 11:00:34;;;;;;;0.20;0.20;;;24.50;41.00;;;;;;6272862;28;20800;-46
2022/07/16 11:03:36;;;;;;;0.15;0.15;;;24.60;41.00;;;;;;6274675;28;20051;-45
2022/07/16 11:06:40;;;;;;;0.20;0.20;;;24.60;41.00;;;;;;6271947;28;20930;-42
2022/07/16 11:09:43;;;;;;;0.45;0.38;;;24.60;41.00;;;;;;6274319;28;20343;-47
2022/07/16 11:12:45;;;;;;;0.40;0.30;;;24.50;40.90;;;;;;6272963;28;20043;-49
2022/07/16 11:15:48;;;;;;;0.40;0.28;;;24.60;40.90;;;;;;6276608;28;20047;-44
2022/07/16 11:18:53;;;;;;;0.30;0.30;;;24.70;41.00;;;;;;6258074;28;20043;-44
2022/07/16 11:21:57;;;;;;;0.90;0.30;;;24.60;40.90;;;;;;6277813;28;20310;-45
2022/07/16 11:25:02;;;;;;;0.20;0.20;;;24.70;40.90;;;;;;6252539;28;20662;-48
2022/07/16 11:28:04;;;;;;;0.35;0.25;;;24.60;40.80;;;;;;6255960;28;20202;-44
2022/07/16 11:31:08;;;;;;;0.40;0.30;;;24.70;40.80;;;;;;6278926;28;20325;-45
2022/07/16 11:34:22;;;;;;;0.52;0.20;;;24.60;40.60;;;;;;6258123;28;20973;-45
2022/07/16 11:37:24;;;;;;;0.20;0.20;;;24.60;40.60;;;;;;6271323;28;20134;-43
2022/07/16 11:40:33;;;;;;;0.45;0.30;;;24.60;40.50;;;;;;6269754;28;20394;-47
2022/07/16 11:43:35;;;;;;;0.22;0.20;;;24.50;40.30;;;;;;6256399;28;20162;-46
2022/07/16 11:46:42;;;;;;;0.25;0.25;;;24.70;40.30;;;;;;6276563;28;20459;-44
2022/07/16 11:49:52;;;;;;;0.20;0.17;;;24.70;40.30;;;;;;6258274;28;20432;-48
2022/07/16 11:53:03;;;;;;;0.30;0.20;;;24.70;40.20;;;;;;6254574;28;20151;-45
2022/07/16 11:56:05;;;;;;;0.30;0.30;;;24.80;40.20;;;;;;6272758;28;20048;-46
2022/07/16 11:59:17;;;;;;;0.40;0.40;;;24.70;40.10;;;;;;6244253;28;20630;-45
2022/07/16 12:02:20;;;;;;;0.43;0.30;;;24.90;40.10;;;;;;6246352;28;20067;-44
2022/07/16 12:05:28;;;;;;;0.50;0.20;;;24.70;40.60;;;;;;6240354;28;20043;-47
2022/07/16 12:08:32;;;;;;;0.40;0.30;;;24.70;39.90;;;;;;6242349;28;20181;-44
2022/07/16 12:11:35;;;;;;;0.40;0.30;;;24.70;39.80;;;;;;6240296;28;20048;-48
2022/07/16 12:14:46;;;;;;;0.60;0.30;;;24.70;39.80;;;;;;6262087;28;20280;-48
2022/07/16 12:18:13;;;;;;;0.10;0.10;;;24.70;39.70;;;;;;6233864;28;20189;-47
2022/07/16 12:21:27;;;;;;;0.28;0.28;;;24.70;39.70;;;;;;6258898;28;20284;-47
2022/07/16 12:24:29;;;;;;;0.60;0.30;;;24.70;39.70;;;;;;6260720;28;20145;-48
2022/07/16 12:27:44;;;;;;;0.30;0.20;;;24.70;39.60;;;;;;6256435;28;20040;-48
2022/07/16 12:30:52;;;;;;;0.40;0.30;;;24.70;39.60;;;;;;6260595;28;20305;-47
2022/07/16 12:33:54;;;;;;;0.45;0.30;;;24.60;39.60;;;;;;6246087;28;20184;-46
2022/07/16 12:36:56;;;;;;;0.30;0.30;;;24.70;39.70;;;;;;6258503;28;20038;-44
2022/07/16 12:40:11;;;;;;;1.35;0.47;;;24.60;39.60;;;;;;6261981;28;20131;-48
2022/07/16 12:43:13;;;;;;;0.30;0.20;;;24.70;39.60;;;;;;6261049;28;20546;-44
2022/07/16 12:46:15;;;;;;;0.32;0.20;;;24.70;39.60;;;;;;6265576;28;20782;-44
2022/07/16 12:49:20;;;;;;;0.20;0.20;;;24.70;39.60;;;;;;6261988;28;20363;-47
2022/07/16 12:52:25;;;;;;;0.20;0.20;;;24.80;39.60;;;;;;6265118;28;20048;-45
2022/07/16 12:58:50;;;;;;;0.30;0.30;;;24.70;39.50;;;;;;6263696;28;21488;-46
2022/07/16 13:01:56;;;;;;;0.20;0.20;;;24.70;40.10;;;;;;6252043;28;21067;-48
2022/07/16 13:04:57;;;;;;;0.30;0.20;;;24.70;39.50;;;;;;6239327;28;20518;-41
2022/07/16 13:07:59;;;;;;;0.40;0.40;;;24.80;39.50;;;;;;6257708;28;20260;-48
2022/07/16 13:11:01;;;;;;;0.30;0.30;;;24.70;39.40;;;;;;6255428;28;20119;-47
2022/07/16 13:14:05;;;;;;;0.57;0.35;;;24.70;39.30;;;;;;6261709;28;20618;-46
2022/07/16 13:17:06;;;;;;;0.40;0.40;;;24.70;39.10;;;;;;6264890;28;20169;-46
2022/07/16 13:20:11;;;;;;;0.50;0.43;;;24.80;39.10;;;;;;6264364;28;20150;-47
2022/07/16 13:23:17;;;;;;;0.40;0.40;;;24.80;39.00;;;;;;6260993;28;20470;-44
2022/07/16 13:26:19;;;;;;;0.40;0.40;;;24.70;39.00;;;;;;6275416;28;20048;-45
2022/07/16 13:29:21;;;;;;;0.50;0.40;;;24.80;38.90;;;;;;6275392;28;20056;-46
2022/07/16 13:32:23;;;;;;;0.65;0.50;;;24.70;38.80;;;;;;6281339;28;21540;-44
2022/07/16 13:35:24;;;;;;;0.60;0.40;;;24.80;38.80;;;;;;6256241;28;20044;-44
2022/07/16 13:38:26;;;;;;;0.38;0.30;;;24.70;38.70;;;;;;6246341;28;20155;-45
2022/07/16 13:41:28;;;;;;;0.90;0.40;;;24.70;38.80;;;;;;6259059;28;20364;-43
2022/07/16 13:44:30;;;;;;;0.57;0.50;;;24.80;38.90;;;;;;6259358;28;20039;-43
2022/07/16 13:47:32;;;;;;;0.43;0.40;;;24.70;38.80;;;;;;6258578;28;20117;-46
2022/07/16 13:50:34;;;;;;;0.57;0.40;;;24.70;38.70;;;;;;6258681;28;20048;-47
2022/07/16 13:53:38;;;;;;;0.45;0.40;;;24.80;38.70;;;;;;6253551;28;20086;-46
2022/07/16 13:56:44;;;;;;;0.60;0.50;;;24.80;38.70;;;;;;6260784;28;20036;-44
2022/07/16 13:59:45;;;;;;;0.43;0.30;;;24.70;38.60;;;;;;6257759;28;20075;-41
2022/07/16 14:02:47;;;;;;;0.40;0.30;;;24.70;38.50;;;;;;6268131;28;20566;-44
2022/07/16 14:05:48;;;;;;;0.60;0.50;;;24.80;38.40;;;;;;6270899;28;20048;-46
2022/07/16 14:08:50;;;;;;;0.57;0.57;;;24.70;38.30;;;;;;6270561;28;20231;-43
2022/07/16 14:11:52;;;;;;;0.60;0.50;;;24.70;38.10;;;;;;6268814;28;20044;-44
2022/07/16 14:14:54;;;;;;;0.70;0.50;;;24.70;38.00;;;;;;6261343;28;20219;-42
2022/07/16 14:17:57;;;;;;;0.43;0.40;;;24.70;37.90;;;;;;6258218;28;20069;-44
2022/07/16 14:20:59;;;;;;;0.55;0.50;;;24.80;37.80;;;;;;6258044;28;20039;-44
2022/07/16 14:24:01;;;;;;;0.40;0.40;;;24.70;37.80;;;;;;6259371;28;20048;-41
2022/07/16 14:27:03;;;;;;;0.43;0.40;;;24.80;37.90;;;;;;6260957;28;20044;-46
2022/07/16 14:30:06;;;;;;;0.70;0.40;;;24.70;37.80;;;;;;6255257;28;20128;-45
2022/07/16 14:33:08;;;;;;;0.60;0.50;;;24.70;37.70;;;;;;6254025;28;20153;-41
2022/07/16 14:36:09;;;;;;;0.70;0.50;;;24.70;37.70;;;;;;6269843;28;20275;-42
2022/07/16 14:39:11;;;;;;;0.60;0.50;;;24.80;37.70;;;;;;6267488;28;20048;-45
2022/07/16 14:42:14;;;;;;;0.52;0.50;;;24.70;37.60;;;;;;6266594;28;20035;-45
2022/07/16 14:45:21;;;;;;;0.75;0.60;;;24.70;37.50;;;;;;6263638;28;20307;-40
2022/07/16 14:48:23;;;;;;;0.77;0.60;;;24.70;37.40;;;;;;6242852;28;20146;-44
2022/07/16 14:51:25;;;;;;;0.52;0.50;;;24.80;37.50;;;;;;6259658;28;20354;-46
2022/07/16 14:54:27;;;;;;;0.50;0.50;;;24.70;37.50;;;;;;6260742;28;20516;-44
2022/07/16 14:57:29;;;;;;;0.50;0.40;;;24.80;37.50;;;;;;6249608;28;20581;-42
2022/07/16 15:00:31;;;;;;;0.50;0.35;;;24.80;37.50;;;;;;6235557;28;20040;-44
2022/07/16 15:03:32;;;;;;;0.68;0.40;;;24.80;37.50;;;;;;6256409;28;20156;-47
2022/07/16 15:06:34;;;;;;;0.50;0.40;;;24.80;37.50;;;;;;6257455;28;20040;-43
2022/07/16 15:09:36;;;;;;;0.50;0.40;;;24.80;37.50;;;;;;6256810;28;20939;-43
2022/07/16 15:12:38;;;;;;;0.52;0.40;;;24.80;37.50;;;;;;6251556;28;20951;-43
2022/07/16 15:15:40;;;;;;;0.50;0.50;;;24.70;37.40;;;;;;6241453;28;20070;-45
2022/07/16 15:18:42;;;;;;;0.73;0.50;;;24.70;37.40;;;;;;6257742;28;20311;-44
2022/07/16 15:21:44;;;;;;;0.68;0.40;;;24.70;37.40;;;;;;6253260;28;20093;-43
2022/07/16 15:24:45;;;;;;;0.50;0.50;;;24.80;37.50;;;;;;6265114;28;20170;-41
2022/07/16 15:27:48;;;;;;;0.60;0.43;;;24.80;37.50;;;;;;6265383;28;20050;-44
2022/07/16 15:30:49;;;;;;;0.82;0.60;;;24.80;37.50;;;;;;6255202;28;20441;-42
2022/07/16 15:33:51;;;;;;;0.80;0.57;;;24.90;37.50;;;;;;6253779;28;20139;-41
2022/07/16 15:36:52;;;;;;;0.70;0.50;;;24.90;37.40;;;;;;6252487;28;20399;-44
2022/07/16 15:39:54;;;;;;;0.52;0.45;;;24.80;37.30;;;;;;6253182;28;20724;-43
2022/07/16 15:42:57;;;;;;;0.65;0.50;;;25.00;37.30;;;;;;6252177;28;20515;-43
2022/07/16 15:45:59;;;;;;;0.60;0.47;;;24.90;37.30;;;;;;6258293;28;20443;-45
2022/07/16 15:49:01;;;;;;;0.40;0.38;;;24.90;37.40;;;;;;6257178;28;20613;-46
2022/07/16 15:52:04;;;;;;;0.57;0.40;;;24.90;37.40;;;;;;6264209;28;20048;-47
2022/07/16 15:55:07;;;;;;;0.63;0.40;;;24.80;37.40;;;;;;6262933;28;21040;-41
2022/07/16 15:58:09;;;;;;;0.77;0.50;;;25.00;37.50;;;;;;6255335;28;20244;-46
2022/07/16 16:01:11;;;;;;;0.50;0.40;;;24.90;37.30;;;;;;6249248;28;20635;-41
2022/07/16 16:04:15;;;;;;;0.50;0.50;;;24.90;37.30;;;;;;6258468;28;20214;-43
2022/07/16 16:07:17;;;;;;;0.30;0.28;;;24.90;37.30;;;;;;6253135;28;20567;-43
2022/07/16 16:10:18;;;;;;;0.52;0.40;;;24.90;37.30;;;;;;6254675;28;20102;-45